Home   Weather   USA   Sierra Vista   Past weeks
Flag for USA

Past Weather in Sierra Vista, Arizona, USA — Yesterday and Last 2 Weeks

Currently: 71 °F. Mostly cloudy. (Weather station: Fort Huachuca, USA). See more current weather

Past Weather in Sierra Vista — Graph

°F

Sierra Vista Temperature Yesterday

Maximum temperature yesterday: 93 °F (at 12:55 pm)
Minimum temperature yesterday: 72 °F (at 5:55 am)
Average temperature yesterday: 80 °F

High & Low Weather Summary for the Past Weeks

 TemperatureHumidityPressure
High102 °F (Jun 12, 1:32 pm)100% (Jun 21, 9:02 pm)30.11 "Hg (Jun 21, 9:02 pm)
Low66 °F (Jun 10, 2:55 am)3% (Jun 14, 3:55 pm)29.58 "Hg (Jun 17, 4:57 pm)
Average84 °F26%29.82 "Hg
* Reported Jun 9 2:55 am — Jun 24 2:55 am, Sierra Vista. Weather by CustomWeather, © 2024

Note: Actual official high and low records may vary slightly from our data, if they occured in-between our weather recording intervals... More about our weather records

Sierra Vista Weather History for the Previous 24 Hours

Scroll right to see more
 ConditionsComfort  
Time TempWeatherWind HumidityBarometerVisibility
2:55 am
Mon, Jun 24
71 °FMostly cloudy.3 mph78%29.93 "Hg10 mi
1:55 am73 °FPassing clouds.3 mph73%29.91 "Hg10 mi
12:55 am74 °FMostly cloudy.No wind64%29.92 "Hg10 mi
11:55 pm
Sun, Jun 23
74 °FOvercast.15 mph63%29.91 "Hg10 mi
11:39 pm73 °FOvercast.15 mph69%29.93 "Hg10 mi
11:25 pm75 °FLight rain. Overcast.14 mph69%29.93 "Hg10 mi
11:11 pm75 °FOvercast.12 mph65%29.93 "Hg10 mi
10:55 pm75 °FLight rain. Overcast.10 mph66%29.94 "Hg9 mi
10:26 pm75 °FLight rain. Overcast.14 mph65%29.95 "Hg10 mi
9:55 pm75 °FLight rain. Overcast.14 mph73%29.94 "Hg10 mi
9:03 pm79 °FLight rain. Mostly cloudy.5 mph58%29.93 "Hg10 mi
8:55 pm79 °FMostly cloudy.No wind56%29.93 "Hg10 mi
8:21 pm81 °FMostly cloudy.5 mph51%29.92 "Hg10 mi
7:55 pm82 °FMostly cloudy.6 mph49%29.90 "Hg10 mi
7:41 pm82 °FPassing clouds.10 mph51%29.90 "Hg10 mi
6:55 pm82 °FBroken clouds.12 mph47%29.89 "Hg10 mi
6:15 pm81 °FMostly cloudy.18 mph48%29.88 "Hg10 mi
5:55 pm80 °FPassing clouds.16 mph51%29.87 "Hg10 mi
4:55 pm82 °FOvercast.16 mph46%29.85 "Hg10 mi
3:55 pm81 °FBroken clouds.17 mph51%29.86 "Hg10 mi
3:30 pm79 °FMostly cloudy.18 mph61%29.87 "Hg8 mi
3:12 pm79 °FLight rain. Partly sunny.18 mph58%29.89 "Hg8 mi
2:55 pm82 °FPartly sunny.20 mph54%29.88 "Hg10 mi
2:39 pm88 °FLight rain. Overcast.23 mph40%29.86 "Hg10 mi
2:37 pm88 °FOvercast.17 mph40%29.86 "Hg10 mi
1:55 pm92 °FPartly sunny.8 mph31%29.85 "Hg10 mi
12:55 pm93 °FScattered clouds.3 mph30%29.89 "Hg10 mi
12:23 pm93 °FPassing clouds.8 mph32%29.89 "Hg10 mi
11:55 am91 °FSunny.6 mph35%29.91 "Hg10 mi
10:55 am90 °FPartly sunny.No wind39%29.93 "Hg10 mi
9:55 am86 °FScattered clouds.7 mph43%29.94 "Hg10 mi
8:55 am83 °FSunny.3 mph48%29.97 "Hg10 mi
7:55 am80 °FSunny.No wind59%29.97 "Hg9 mi
7:18 am79 °FSunny.No wind58%29.97 "Hg4 mi
6:55 am76 °FSunny.No wind67%29.96 "Hg10 mi
5:55 am72 °FPartly sunny.3 mph75%29.97 "Hg10 mi
4:55 am73 °FClear.No wind78%29.96 "Hg10 mi
Weather by CustomWeather, © 2024

See weather overview